메인 페이지
METAR-TAF:

METAR-TAF

공항 :

Naval Air Station JRB Fort Worth (Carswell Field)

포트워스, 텍사스, 미국

위도: 32-45-57N, 경도: 097-26-00W, 고도: 198m

현재 날씨관측

예보는 28분 전, 18:52시(UTC)에 발표되었습니다.
동남동8kt
온도 26°C
습도 24%
기압 1014 hPa
시정: 16.1km
고도 25000ft 상공 구름 보통

METAR: KNFW 191852Z 12008KT 10SM SCT250 26/04 A2993 RMK AO2 SLP121 T02620039 VISNO N $

시각: 13:20 (19:20 UTC)

예보

예보 대상 시간: 19일 15시부터 20일 15시까지 (UTC)
여러 방향의 바람 6kt
시정 10km 이상
고도 25000ft 상공 구름 조금
19일 2100시부터 (UTC)
남남동12kt
시정 10km 이상
고도 2500ft 상공 구름 조금
고도 25000ft 상공 구름 보통
20일 0800시부터 (UTC)
15kt
시정 10km 이상
고도 1200ft 상공 구름 많음
고도 1800ft 상공 흐림

TAF: KNFW 1915/2015 VRB06KT 9999 FEW250 QNH2988INS FM192100 15012KT 9999 FEW025 SCT250 QNH2984INS FM200800 17015KT 9999 BKN012 OVC018 QNH2986INS T12/1915Z T22/1922Z FN20046

4,000개 이상의 공항 관측 자료 및 예보 (METAR 및 TAF 보고).

지도상에서 검색 가능한 기상관측소가 노란 점과 빨간 점으로 표시되어 있습니다.

기상관측소 명을 보려면 표시 위로 마우스를 이동하세요.

날씨 관측과 예보를 보려면 클릭하세요.

지도 변경 : 확대하려면 엑스 표시가 있는 녹색 버튼, 축소하려면 빼기 표시가 있는 녹색 버튼, 다음 페이지의 지도를 보려면 녹색 화살표를 클릭하세요.


METAR-TAF: